sensor_id;sensor_type;location;lat;lon;timestamp;P1;durP1;ratioP1;P2;durP2;ratioP2
62903;SDS011;49000;50.698;13.322;2023-02-15T00:01:07;8.87;;;5.47;;
62903;SDS011;49000;50.698;13.322;2023-02-15T00:03:33;9.70;;;5.60;;
62903;SDS011;49000;50.698;13.322;2023-02-15T00:05:59;11.83;;;5.37;;
62903;SDS011;49000;50.698;13.322;2023-02-15T00:08:25;9.20;;;5.47;;
62903;SDS011;49000;50.698;13.322;2023-02-15T00:10:50;10.50;;;5.40;;
62903;SDS011;49000;50.698;13.322;2023-02-15T00:13:15;12.40;;;5.53;;
62903;SDS011;49000;50.698;13.322;2023-02-15T00:15:41;9.90;;;5.40;;
62903;SDS011;49000;50.698;13.322;2023-02-15T00:18:06;10.57;;;5.10;;
62903;SDS011;49000;50.698;13.322;2023-02-15T00:20:32;9.63;;;4.97;;
62903;SDS011;49000;50.698;13.322;2023-02-15T00:22:58;9.93;;;5.37;;
62903;SDS011;49000;50.698;13.322;2023-02-15T00:25:23;9.70;;;5.03;;
62903;SDS011;49000;50.698;13.322;2023-02-15T00:27:49;11.30;;;5.37;;
62903;SDS011;49000;50.698;13.322;2023-02-15T00:30:15;8.90;;;5.10;;
62903;SDS011;49000;50.698;13.322;2023-02-15T00:32:40;11.27;;;5.57;;
62903;SDS011;49000;50.698;13.322;2023-02-15T00:35:06;8.37;;;5.07;;
62903;SDS011;49000;50.698;13.322;2023-02-15T00:37:32;9.43;;;5.40;;
62903;SDS011;49000;50.698;13.322;2023-02-15T00:39:57;10.67;;;5.37;;
62903;SDS011;49000;50.698;13.322;2023-02-15T00:42:23;8.27;;;5.07;;
62903;SDS011;49000;50.698;13.322;2023-02-15T00:44:48;8.33;;;4.93;;
62903;SDS011;49000;50.698;13.322;2023-02-15T00:47:14;8.73;;;5.00;;
62903;SDS011;49000;50.698;13.322;2023-02-15T00:49:39;7.33;;;4.50;;
62903;SDS011;49000;50.698;13.322;2023-02-15T00:52:05;9.30;;;5.10;;
62903;SDS011;49000;50.698;13.322;2023-02-15T00:54:30;9.90;;;4.63;;
62903;SDS011;49000;50.698;13.322;2023-02-15T00:56:55;9.60;;;4.63;;
62903;SDS011;49000;50.698;13.322;2023-02-15T00:59:21;7.57;;;4.40;;
62903;SDS011;49000;50.698;13.322;2023-02-15T01:01:46;8.17;;;4.63;;
62903;SDS011;49000;50.698;13.322;2023-02-15T01:04:12;8.80;;;5.43;;
62903;SDS011;49000;50.698;13.322;2023-02-15T01:06:37;8.17;;;4.70;;
62903;SDS011;49000;50.698;13.322;2023-02-15T01:09:03;6.83;;;4.20;;
62903;SDS011;49000;50.698;13.322;2023-02-15T01:11:28;8.53;;;4.37;;
62903;SDS011;49000;50.698;13.322;2023-02-15T01:13:55;8.10;;;4.60;;
62903;SDS011;49000;50.698;13.322;2023-02-15T01:16:22;8.90;;;4.90;;
62903;SDS011;49000;50.698;13.322;2023-02-15T01:18:49;8.20;;;4.93;;
62903;SDS011;49000;50.698;13.322;2023-02-15T01:21:18;8.30;;;4.60;;
62903;SDS011;49000;50.698;13.322;2023-02-15T01:23:45;7.87;;;4.63;;
62903;SDS011;49000;50.698;13.322;2023-02-15T01:26:11;8.50;;;4.97;;
62903;SDS011;49000;50.698;13.322;2023-02-15T01:28:38;7.87;;;4.80;;
62903;SDS011;49000;50.698;13.322;2023-02-15T01:31:07;8.07;;;4.67;;
62903;SDS011;49000;50.698;13.322;2023-02-15T01:33:34;7.60;;;4.20;;
62903;SDS011;49000;50.698;13.322;2023-02-15T01:36:00;8.23;;;4.47;;
62903;SDS011;49000;50.698;13.322;2023-02-15T01:38:26;8.47;;;4.40;;
62903;SDS011;49000;50.698;13.322;2023-02-15T01:40:52;6.83;;;4.03;;
62903;SDS011;49000;50.698;13.322;2023-02-15T01:43:18;7.87;;;3.87;;
62903;SDS011;49000;50.698;13.322;2023-02-15T01:45:45;6.53;;;3.70;;
62903;SDS011;49000;50.698;13.322;2023-02-15T01:48:17;7.23;;;3.73;;
62903;SDS011;49000;50.698;13.322;2023-02-15T01:50:47;8.00;;;3.97;;
62903;SDS011;49000;50.698;13.322;2023-02-15T01:53:35;6.60;;;3.47;;
62903;SDS011;49000;50.698;13.322;2023-02-15T01:56:09;7.80;;;3.63;;
62903;SDS011;49000;50.698;13.322;2023-02-15T01:58:42;7.70;;;3.50;;
62903;SDS011;49000;50.698;13.322;2023-02-15T02:01:08;7.03;;;3.60;;
62903;SDS011;49000;50.698;13.322;2023-02-15T02:06:23;6.13;;;3.20;;
62903;SDS011;49000;50.698;13.322;2023-02-15T02:08:50;6.27;;;3.60;;
62903;SDS011;49000;50.698;13.322;2023-02-15T02:11:17;7.70;;;3.57;;
62903;SDS011;49000;50.698;13.322;2023-02-15T02:13:43;6.33;;;3.17;;
62903;SDS011;49000;50.698;13.322;2023-02-15T02:16:12;6.07;;;3.13;;
62903;SDS011;49000;50.698;13.322;2023-02-15T02:18:45;6.03;;;2.90;;
62903;SDS011;49000;50.698;13.322;2023-02-15T02:32:42;5.40;;;2.90;;
62903;SDS011;49000;50.698;13.322;2023-02-15T02:35:16;6.27;;;3.27;;
62903;SDS011;49000;50.698;13.322;2023-02-15T02:37:46;5.30;;;3.00;;
62903;SDS011;49000;50.698;13.322;2023-02-15T02:40:51;5.60;;;2.93;;
62903;SDS011;49000;50.698;13.322;2023-02-15T02:43:35;6.43;;;3.33;;
62903;SDS011;49000;50.698;13.322;2023-02-15T02:46:53;5.10;;;3.20;;
62903;SDS011;49000;50.698;13.322;2023-02-15T02:49:51;4.67;;;2.87;;
62903;SDS011;49000;50.698;13.322;2023-02-15T02:55:51;6.10;;;3.10;;
62903;SDS011;49000;50.698;13.322;2023-02-15T02:58:03;6.60;;;3.60;;
62903;SDS011;49000;50.698;13.322;2023-02-15T03:05:58;4.60;;;3.20;;
62903;SDS011;49000;50.698;13.322;2023-02-15T03:08:28;5.50;;;3.13;;
62903;SDS011;49000;50.698;13.322;2023-02-15T03:11:00;5.73;;;3.13;;
62903;SDS011;49000;50.698;13.322;2023-02-15T03:13:27;4.30;;;2.70;;
62903;SDS011;49000;50.698;13.322;2023-02-15T03:15:53;5.47;;;3.03;;
62903;SDS011;49000;50.698;13.322;2023-02-15T03:18:43;5.57;;;3.50;;
62903;SDS011;49000;50.698;13.322;2023-02-15T03:21:17;5.40;;;2.90;;
62903;SDS011;49000;50.698;13.322;2023-02-15T03:23:48;4.47;;;2.60;;
62903;SDS011;49000;50.698;13.322;2023-02-15T03:26:17;4.57;;;2.40;;
62903;SDS011;49000;50.698;13.322;2023-02-15T03:28:45;4.53;;;2.67;;
62903;SDS011;49000;50.698;13.322;2023-02-15T03:31:13;5.47;;;2.63;;
62903;SDS011;49000;50.698;13.322;2023-02-15T03:33:42;4.70;;;2.77;;
62903;SDS011;49000;50.698;13.322;2023-02-15T03:36:21;5.10;;;2.50;;
62903;SDS011;49000;50.698;13.322;2023-02-15T03:38:53;7.53;;;2.80;;
62903;SDS011;49000;50.698;13.322;2023-02-15T03:41:24;5.50;;;2.73;;
62903;SDS011;49000;50.698;13.322;2023-02-15T03:46:25;5.63;;;2.87;;
62903;SDS011;49000;50.698;13.322;2023-02-15T03:49:06;4.93;;;2.53;;
62903;SDS011;49000;50.698;13.322;2023-02-15T03:51:35;5.57;;;2.27;;
62903;SDS011;49000;50.698;13.322;2023-02-15T03:54:08;3.50;;;2.20;;
62903;SDS011;49000;50.698;13.322;2023-02-15T03:56:39;4.47;;;2.13;;
62903;SDS011;49000;50.698;13.322;2023-02-15T03:59:06;4.63;;;2.30;;
62903;SDS011;49000;50.698;13.322;2023-02-15T04:01:57;4.03;;;2.23;;
62903;SDS011;49000;50.698;13.322;2023-02-15T04:04:44;4.50;;;2.17;;
62903;SDS011;49000;50.698;13.322;2023-02-15T04:07:11;5.03;;;2.30;;
62903;SDS011;49000;50.698;13.322;2023-02-15T04:09:37;3.83;;;2.13;;
62903;SDS011;49000;50.698;13.322;2023-02-15T04:12:30;6.07;;;2.43;;
62903;SDS011;49000;50.698;13.322;2023-02-15T04:14:55;4.33;;;2.23;;
62903;SDS011;49000;50.698;13.322;2023-02-15T04:17:39;5.73;;;2.43;;
62903;SDS011;49000;50.698;13.322;2023-02-15T04:20:05;4.63;;;1.90;;
62903;SDS011;49000;50.698;13.322;2023-02-15T04:22:50;3.70;;;2.17;;
62903;SDS011;49000;50.698;13.322;2023-02-15T04:25:34;4.23;;;2.00;;
62903;SDS011;49000;50.698;13.322;2023-02-15T04:27:59;4.27;;;2.20;;
62903;SDS011;49000;50.698;13.322;2023-02-15T04:30:25;3.87;;;2.17;;
62903;SDS011;49000;50.698;13.322;2023-02-15T04:32:51;4.57;;;2.40;;
62903;SDS011;49000;50.698;13.322;2023-02-15T04:35:18;3.40;;;1.83;;
62903;SDS011;49000;50.698;13.322;2023-02-15T04:37:44;3.90;;;2.30;;
62903;SDS011;49000;50.698;13.322;2023-02-15T04:40:10;3.23;;;2.00;;
62903;SDS011;49000;50.698;13.322;2023-02-15T04:42:38;3.70;;;1.90;;
62903;SDS011;49000;50.698;13.322;2023-02-15T04:45:03;4.70;;;1.90;;
62903;SDS011;49000;50.698;13.322;2023-02-15T04:47:29;4.80;;;2.40;;
62903;SDS011;49000;50.698;13.322;2023-02-15T04:49:55;2.60;;;1.47;;
62903;SDS011;49000;50.698;13.322;2023-02-15T04:52:20;4.70;;;2.03;;
62903;SDS011;49000;50.698;13.322;2023-02-15T04:54:46;4.33;;;1.87;;
62903;SDS011;49000;50.698;13.322;2023-02-15T04:57:11;2.80;;;1.70;;
62903;SDS011;49000;50.698;13.322;2023-02-15T04:59:37;3.70;;;1.70;;
62903;SDS011;49000;50.698;13.322;2023-02-15T05:02:03;3.43;;;1.77;;
62903;SDS011;49000;50.698;13.322;2023-02-15T05:04:28;4.30;;;2.07;;
62903;SDS011;49000;50.698;13.322;2023-02-15T05:06:54;5.23;;;2.00;;
62903;SDS011;49000;50.698;13.322;2023-02-15T05:09:19;3.37;;;1.90;;
62903;SDS011;49000;50.698;13.322;2023-02-15T05:11:45;3.90;;;2.07;;
62903;SDS011;49000;50.698;13.322;2023-02-15T05:14:10;3.40;;;2.13;;
62903;SDS011;49000;50.698;13.322;2023-02-15T05:16:36;5.07;;;2.00;;
62903;SDS011;49000;50.698;13.322;2023-02-15T05:19:02;4.27;;;1.87;;
62903;SDS011;49000;50.698;13.322;2023-02-15T05:21:27;3.47;;;1.70;;
62903;SDS011;49000;50.698;13.322;2023-02-15T05:23:53;3.30;;;1.60;;
62903;SDS011;49000;50.698;13.322;2023-02-15T05:26:19;3.30;;;1.77;;
62903;SDS011;49000;50.698;13.322;2023-02-15T05:29:05;4.27;;;1.90;;
62903;SDS011;49000;50.698;13.322;2023-02-15T05:31:32;3.70;;;1.83;;
62903;SDS011;49000;50.698;13.322;2023-02-15T05:33:58;2.83;;;1.53;;
62903;SDS011;49000;50.698;13.322;2023-02-15T05:36:23;3.93;;;1.80;;
62903;SDS011;49000;50.698;13.322;2023-02-15T05:38:49;3.63;;;1.50;;
62903;SDS011;49000;50.698;13.322;2023-02-15T05:41:15;3.73;;;1.90;;
62903;SDS011;49000;50.698;13.322;2023-02-15T05:43:40;3.37;;;1.57;;
62903;SDS011;49000;50.698;13.322;2023-02-15T05:46:06;2.63;;;1.60;;
62903;SDS011;49000;50.698;13.322;2023-02-15T05:48:32;4.30;;;1.47;;
62903;SDS011;49000;50.698;13.322;2023-02-15T05:53:25;3.23;;;1.50;;
62903;SDS011;49000;50.698;13.322;2023-02-15T05:55:51;2.10;;;1.33;;
62903;SDS011;49000;50.698;13.322;2023-02-15T05:58:18;2.70;;;1.57;;
62903;SDS011;49000;50.698;13.322;2023-02-15T06:00:44;2.37;;;1.50;;
62903;SDS011;49000;50.698;13.322;2023-02-15T06:03:09;4.93;;;1.63;;
62903;SDS011;49000;50.698;13.322;2023-02-15T06:05:35;4.50;;;1.53;;
62903;SDS011;49000;50.698;13.322;2023-02-15T06:08:00;3.97;;;1.90;;
62903;SDS011;49000;50.698;13.322;2023-02-15T06:10:26;4.57;;;1.70;;
62903;SDS011;49000;50.698;13.322;2023-02-15T06:12:51;4.30;;;1.80;;
62903;SDS011;49000;50.698;13.322;2023-02-15T06:15:17;3.67;;;1.83;;
62903;SDS011;49000;50.698;13.322;2023-02-15T06:17:42;4.03;;;1.90;;
62903;SDS011;49000;50.698;13.322;2023-02-15T06:20:08;2.17;;;1.53;;
62903;SDS011;49000;50.698;13.322;2023-02-15T06:22:34;3.30;;;1.70;;
62903;SDS011;49000;50.698;13.322;2023-02-15T06:24:59;2.93;;;1.60;;
62903;SDS011;49000;50.698;13.322;2023-02-15T06:27:25;3.00;;;1.73;;
62903;SDS011;49000;50.698;13.322;2023-02-15T06:29:50;4.00;;;1.90;;
62903;SDS011;49000;50.698;13.322;2023-02-15T06:32:16;6.13;;;2.30;;
62903;SDS011;49000;50.698;13.322;2023-02-15T06:34:41;5.37;;;2.40;;
62903;SDS011;49000;50.698;13.322;2023-02-15T06:37:07;4.23;;;2.30;;
62903;SDS011;49000;50.698;13.322;2023-02-15T06:39:33;4.30;;;2.20;;
62903;SDS011;49000;50.698;13.322;2023-02-15T06:41:58;6.20;;;2.13;;
62903;SDS011;49000;50.698;13.322;2023-02-15T06:44:24;3.77;;;2.23;;
62903;SDS011;49000;50.698;13.322;2023-02-15T06:46:49;3.97;;;2.10;;
62903;SDS011;49000;50.698;13.322;2023-02-15T06:49:15;3.67;;;2.17;;
62903;SDS011;49000;50.698;13.322;2023-02-15T06:51:40;6.77;;;2.37;;
62903;SDS011;49000;50.698;13.322;2023-02-15T06:54:06;6.43;;;2.47;;
62903;SDS011;49000;50.698;13.322;2023-02-15T06:56:31;5.27;;;2.23;;
62903;SDS011;49000;50.698;13.322;2023-02-15T06:58:57;4.47;;;2.60;;
62903;SDS011;49000;50.698;13.322;2023-02-15T07:01:22;4.03;;;2.53;;
62903;SDS011;49000;50.698;13.322;2023-02-15T07:03:48;5.67;;;2.90;;
62903;SDS011;49000;50.698;13.322;2023-02-15T07:06:14;5.63;;;3.17;;
62903;SDS011;49000;50.698;13.322;2023-02-15T07:08:39;3.90;;;2.33;;
62903;SDS011;49000;50.698;13.322;2023-02-15T07:11:05;4.87;;;2.77;;
62903;SDS011;49000;50.698;13.322;2023-02-15T07:13:49;3.47;;;2.13;;
62903;SDS011;49000;50.698;13.322;2023-02-15T07:16:15;4.63;;;1.90;;
62903;SDS011;49000;50.698;13.322;2023-02-15T07:18:40;4.07;;;2.33;;
62903;SDS011;49000;50.698;13.322;2023-02-15T07:21:06;4.80;;;2.40;;
62903;SDS011;49000;50.698;13.322;2023-02-15T07:23:35;4.13;;;2.40;;
62903;SDS011;49000;50.698;13.322;2023-02-15T07:26:02;4.43;;;2.23;;
62903;SDS011;49000;50.698;13.322;2023-02-15T07:28:28;3.77;;;1.93;;
62903;SDS011;49000;50.698;13.322;2023-02-15T07:30:54;3.67;;;2.20;;
62903;SDS011;49000;50.698;13.322;2023-02-15T07:33:20;3.03;;;2.10;;
62903;SDS011;49000;50.698;13.322;2023-02-15T07:35:58;4.63;;;2.07;;
62903;SDS011;49000;50.698;13.322;2023-02-15T07:38:27;3.43;;;2.23;;
62903;SDS011;49000;50.698;13.322;2023-02-15T07:40:58;2.43;;;1.87;;
62903;SDS011;49000;50.698;13.322;2023-02-15T07:43:25;4.77;;;2.17;;
62903;SDS011;49000;50.698;13.322;2023-02-15T07:45:51;4.33;;;2.33;;
62903;SDS011;49000;50.698;13.322;2023-02-15T07:48:17;3.97;;;2.30;;
62903;SDS011;49000;50.698;13.322;2023-02-15T07:50:42;3.70;;;2.40;;
62903;SDS011;49000;50.698;13.322;2023-02-15T07:53:08;3.00;;;2.10;;
62903;SDS011;49000;50.698;13.322;2023-02-15T07:55:33;4.27;;;2.60;;
62903;SDS011;49000;50.698;13.322;2023-02-15T07:57:59;3.90;;;2.23;;
62903;SDS011;49000;50.698;13.322;2023-02-15T08:00:24;4.40;;;2.37;;
62903;SDS011;49000;50.698;13.322;2023-02-15T08:02:50;5.27;;;2.50;;
62903;SDS011;49000;50.698;13.322;2023-02-15T08:05:37;4.80;;;2.87;;
62903;SDS011;49000;50.698;13.322;2023-02-15T08:08:07;5.17;;;2.57;;
62903;SDS011;49000;50.698;13.322;2023-02-15T08:10:34;3.87;;;2.40;;
62903;SDS011;49000;50.698;13.322;2023-02-15T08:13:18;5.47;;;2.87;;
62903;SDS011;49000;50.698;13.322;2023-02-15T08:15:48;4.50;;;2.60;;
62903;SDS011;49000;50.698;13.322;2023-02-15T08:18:14;7.10;;;2.97;;
62903;SDS011;49000;50.698;13.322;2023-02-15T08:20:39;5.03;;;2.77;;
62903;SDS011;49000;50.698;13.322;2023-02-15T08:23:05;5.27;;;3.00;;
62903;SDS011;49000;50.698;13.322;2023-02-15T08:25:30;4.20;;;2.70;;
62903;SDS011;49000;50.698;13.322;2023-02-15T08:27:56;4.63;;;2.93;;
62903;SDS011;49000;50.698;13.322;2023-02-15T08:30:21;6.03;;;3.20;;
62903;SDS011;49000;50.698;13.322;2023-02-15T08:32:47;6.43;;;3.40;;
62903;SDS011;49000;50.698;13.322;2023-02-15T08:35:13;7.00;;;3.27;;
62903;SDS011;49000;50.698;13.322;2023-02-15T08:37:38;5.60;;;3.03;;
62903;SDS011;49000;50.698;13.322;2023-02-15T08:40:04;6.57;;;3.30;;
62903;SDS011;49000;50.698;13.322;2023-02-15T08:42:31;6.23;;;3.00;;
62903;SDS011;49000;50.698;13.322;2023-02-15T08:44:57;5.40;;;2.97;;
62903;SDS011;49000;50.698;13.322;2023-02-15T08:47:23;6.57;;;3.10;;
62903;SDS011;49000;50.698;13.322;2023-02-15T08:49:48;6.90;;;3.70;;
62903;SDS011;49000;50.698;13.322;2023-02-15T08:52:14;7.33;;;3.43;;
62903;SDS011;49000;50.698;13.322;2023-02-15T08:54:39;7.13;;;3.87;;
62903;SDS011;49000;50.698;13.322;2023-02-15T08:57:05;8.00;;;3.90;;
62903;SDS011;49000;50.698;13.322;2023-02-15T08:59:31;6.93;;;3.93;;
62903;SDS011;49000;50.698;13.322;2023-02-15T09:01:58;6.60;;;3.63;;
62903;SDS011;49000;50.698;13.322;2023-02-15T09:04:23;7.27;;;3.90;;
62903;SDS011;49000;50.698;13.322;2023-02-15T09:06:49;6.10;;;3.67;;
62903;SDS011;49000;50.698;13.322;2023-02-15T09:09:16;5.13;;;3.33;;
62903;SDS011;49000;50.698;13.322;2023-02-15T09:11:43;5.83;;;3.10;;
62903;SDS011;49000;50.698;13.322;2023-02-15T09:14:12;7.33;;;3.40;;
62903;SDS011;49000;50.698;13.322;2023-02-15T09:16:39;7.10;;;3.70;;
62903;SDS011;49000;50.698;13.322;2023-02-15T09:19:06;6.03;;;3.57;;
62903;SDS011;49000;50.698;13.322;2023-02-15T09:21:33;5.83;;;3.50;;
62903;SDS011;49000;50.698;13.322;2023-02-15T09:24:01;5.87;;;3.50;;
62903;SDS011;49000;50.698;13.322;2023-02-15T09:26:30;5.53;;;3.50;;
62903;SDS011;49000;50.698;13.322;2023-02-15T09:28:58;7.23;;;3.77;;
62903;SDS011;49000;50.698;13.322;2023-02-15T09:31:41;6.80;;;3.90;;
62903;SDS011;49000;50.698;13.322;2023-02-15T09:34:10;6.33;;;3.60;;
62903;SDS011;49000;50.698;13.322;2023-02-15T09:36:41;5.10;;;3.50;;
62903;SDS011;49000;50.698;13.322;2023-02-15T09:39:07;6.03;;;3.40;;
62903;SDS011;49000;50.698;13.322;2023-02-15T09:42:00;4.83;;;3.33;;
62903;SDS011;49000;50.698;13.322;2023-02-15T09:48:03;5.03;;;3.63;;
62903;SDS011;49000;50.698;13.322;2023-02-15T09:51:06;6.23;;;3.83;;
62903;SDS011;49000;50.698;13.322;2023-02-15T09:56:36;5.37;;;3.07;;
62903;SDS011;49000;50.698;13.322;2023-02-15T09:59:19;4.67;;;3.30;;
62903;SDS011;49000;50.698;13.322;2023-02-15T10:02:16;6.13;;;2.97;;
62903;SDS011;49000;50.698;13.322;2023-02-15T10:05:06;4.30;;;3.10;;
62903;SDS011;49000;50.698;13.322;2023-02-15T10:07:44;4.53;;;3.10;;
62903;SDS011;49000;50.698;13.322;2023-02-15T10:13:07;4.30;;;3.07;;
62903;SDS011;49000;50.698;13.322;2023-02-15T10:22:01;3.60;;;2.70;;
62903;SDS011;49000;50.698;13.322;2023-02-15T10:24:44;3.80;;;2.80;;
62903;SDS011;49000;50.698;13.322;2023-02-15T10:27:22;3.80;;;3.27;;
62903;SDS011;49000;50.698;13.322;2023-02-15T10:29:51;4.43;;;2.83;;
62903;SDS011;49000;50.698;13.322;2023-02-15T10:32:32;4.10;;;3.13;;
62903;SDS011;49000;50.698;13.322;2023-02-15T10:35:13;3.67;;;3.03;;
62903;SDS011;49000;50.698;13.322;2023-02-15T10:38:25;4.20;;;2.93;;
62903;SDS011;49000;50.698;13.322;2023-02-15T10:43:32;4.27;;;3.07;;
62903;SDS011;49000;50.698;13.322;2023-02-15T10:51:17;4.50;;;3.00;;
62903;SDS011;49000;50.698;13.322;2023-02-15T10:59:22;5.03;;;3.40;;
62903;SDS011;49000;50.698;13.322;2023-02-15T11:02:02;3.53;;;2.67;;
62903;SDS011;49000;50.698;13.322;2023-02-15T11:05:02;4.83;;;3.37;;
62903;SDS011;49000;50.698;13.322;2023-02-15T11:07:54;4.80;;;2.70;;
62903;SDS011;49000;50.698;13.322;2023-02-15T11:10:26;3.97;;;3.10;;
62903;SDS011;49000;50.698;13.322;2023-02-15T11:13:14;4.53;;;3.00;;
62903;SDS011;49000;50.698;13.322;2023-02-15T11:15:53;4.00;;;3.10;;
62903;SDS011;49000;50.698;13.322;2023-02-15T11:18:30;4.40;;;2.83;;
62903;SDS011;49000;50.698;13.322;2023-02-15T11:23:42;4.20;;;3.13;;
62903;SDS011;49000;50.698;13.322;2023-02-15T11:26:12;4.30;;;3.00;;
62903;SDS011;49000;50.698;13.322;2023-02-15T11:28:48;4.17;;;3.00;;
62903;SDS011;49000;50.698;13.322;2023-02-15T11:31:19;4.23;;;2.87;;
62903;SDS011;49000;50.698;13.322;2023-02-15T11:34:00;3.23;;;2.60;;
62903;SDS011;49000;50.698;13.322;2023-02-15T11:36:33;4.17;;;2.57;;
62903;SDS011;49000;50.698;13.322;2023-02-15T11:39:10;5.10;;;2.87;;
62903;SDS011;49000;50.698;13.322;2023-02-15T11:41:40;4.03;;;3.00;;
62903;SDS011;49000;50.698;13.322;2023-02-15T11:44:14;4.23;;;2.73;;
62903;SDS011;49000;50.698;13.322;2023-02-15T11:46:43;4.37;;;3.07;;
62903;SDS011;49000;50.698;13.322;2023-02-15T11:49:12;4.30;;;2.83;;
62903;SDS011;49000;50.698;13.322;2023-02-15T11:51:58;3.73;;;3.10;;
62903;SDS011;49000;50.698;13.322;2023-02-15T11:54:28;4.43;;;2.87;;
62903;SDS011;49000;50.698;13.322;2023-02-15T11:56:59;3.87;;;3.00;;
62903;SDS011;49000;50.698;13.322;2023-02-15T11:59:50;3.50;;;2.60;;
62903;SDS011;49000;50.698;13.322;2023-02-15T12:02:22;3.73;;;2.97;;
62903;SDS011;49000;50.698;13.322;2023-02-15T12:05:01;3.73;;;2.80;;
62903;SDS011;49000;50.698;13.322;2023-02-15T12:07:32;3.97;;;2.63;;
62903;SDS011;49000;50.698;13.322;2023-02-15T12:10:13;4.07;;;2.93;;
62903;SDS011;49000;50.698;13.322;2023-02-15T12:12:45;4.63;;;2.50;;
62903;SDS011;49000;50.698;13.322;2023-02-15T12:15:11;3.07;;;2.50;;
62903;SDS011;49000;50.698;13.322;2023-02-15T12:17:39;3.27;;;2.60;;
62903;SDS011;49000;50.698;13.322;2023-02-15T12:22:38;5.03;;;2.50;;
62903;SDS011;49000;50.698;13.322;2023-02-15T12:25:21;3.07;;;2.50;;
62903;SDS011;49000;50.698;13.322;2023-02-15T12:27:50;3.63;;;2.60;;
62903;SDS011;49000;50.698;13.322;2023-02-15T12:30:29;3.27;;;2.53;;
62903;SDS011;49000;50.698;13.322;2023-02-15T12:33:06;3.87;;;3.33;;
62903;SDS011;49000;50.698;13.322;2023-02-15T12:35:40;3.93;;;2.80;;
62903;SDS011;49000;50.698;13.322;2023-02-15T12:40:36;3.70;;;2.83;;
62903;SDS011;49000;50.698;13.322;2023-02-15T12:43:03;3.43;;;2.67;;
62903;SDS011;49000;50.698;13.322;2023-02-15T12:45:34;3.20;;;2.80;;
62903;SDS011;49000;50.698;13.322;2023-02-15T12:50:33;3.70;;;2.83;;
62903;SDS011;49000;50.698;13.322;2023-02-15T12:55:52;4.27;;;2.77;;
62903;SDS011;49000;50.698;13.322;2023-02-15T12:58:21;3.67;;;2.80;;
62903;SDS011;49000;50.698;13.322;2023-02-15T13:03:33;3.90;;;2.60;;
62903;SDS011;49000;50.698;13.322;2023-02-15T13:06:00;3.70;;;2.60;;
62903;SDS011;49000;50.698;13.322;2023-02-15T13:08:28;3.33;;;2.57;;
62903;SDS011;49000;50.698;13.322;2023-02-15T13:11:00;3.43;;;2.57;;
62903;SDS011;49000;50.698;13.322;2023-02-15T13:13:35;4.70;;;2.50;;
62903;SDS011;49000;50.698;13.322;2023-02-15T13:16:12;3.30;;;2.33;;
62903;SDS011;49000;50.698;13.322;2023-02-15T13:18:41;3.03;;;2.33;;
62903;SDS011;49000;50.698;13.322;2023-02-15T13:23:46;2.77;;;2.17;;
62903;SDS011;49000;50.698;13.322;2023-02-15T13:26:17;2.70;;;2.30;;
62903;SDS011;49000;50.698;13.322;2023-02-15T13:28:46;2.50;;;2.30;;
62903;SDS011;49000;50.698;13.322;2023-02-15T13:31:15;2.93;;;2.20;;
62903;SDS011;49000;50.698;13.322;2023-02-15T13:36:34;2.50;;;2.17;;
62903;SDS011;49000;50.698;13.322;2023-02-15T13:44:44;2.80;;;2.30;;
62903;SDS011;49000;50.698;13.322;2023-02-15T13:47:34;3.90;;;2.50;;
62903;SDS011;49000;50.698;13.322;2023-02-15T13:53:23;3.37;;;2.80;;
62903;SDS011;49000;50.698;13.322;2023-02-15T13:56:13;4.80;;;2.93;;
62903;SDS011;49000;50.698;13.322;2023-02-15T13:58:55;3.97;;;2.63;;
62903;SDS011;49000;50.698;13.322;2023-02-15T14:01:44;3.43;;;2.80;;
62903;SDS011;49000;50.698;13.322;2023-02-15T14:04:27;3.80;;;2.70;;
62903;SDS011;49000;50.698;13.322;2023-02-15T14:07:13;4.70;;;2.80;;
62903;SDS011;49000;50.698;13.322;2023-02-15T14:10:17;3.90;;;3.20;;
62903;SDS011;49000;50.698;13.322;2023-02-15T14:15:44;4.77;;;3.63;;
62903;SDS011;49000;50.698;13.322;2023-02-15T14:18:25;5.57;;;4.70;;
62903;SDS011;49000;50.698;13.322;2023-02-15T14:21:29;8.03;;;5.40;;
62903;SDS011;49000;50.698;13.322;2023-02-15T14:26:52;8.37;;;5.50;;
62903;SDS011;49000;50.698;13.322;2023-02-15T14:32:14;7.33;;;5.33;;
62903;SDS011;49000;50.698;13.322;2023-02-15T14:37:36;6.17;;;5.00;;
62903;SDS011;49000;50.698;13.322;2023-02-15T14:43:15;7.10;;;6.10;;
62903;SDS011;49000;50.698;13.322;2023-02-15T14:49:10;6.97;;;5.70;;
62903;SDS011;49000;50.698;13.322;2023-02-15T14:56:45;6.07;;;5.47;;
62903;SDS011;49000;50.698;13.322;2023-02-15T14:59:42;6.07;;;5.05;;
62903;SDS011;49000;50.698;13.322;2023-02-15T15:02:25;6.78;;;5.43;;
62903;SDS011;49000;50.698;13.322;2023-02-15T15:05:11;6.93;;;5.53;;
62903;SDS011;49000;50.698;13.322;2023-02-15T15:07:50;6.38;;;5.60;;
62903;SDS011;49000;50.698;13.322;2023-02-15T15:15:32;5.78;;;4.80;;
62903;SDS011;49000;50.698;13.322;2023-02-15T15:18:42;5.47;;;4.97;;
62903;SDS011;49000;50.698;13.322;2023-02-15T15:21:51;5.72;;;5.18;;
62903;SDS011;49000;50.698;13.322;2023-02-15T15:38:37;5.20;;;4.70;;
62903;SDS011;49000;50.698;13.322;2023-02-15T15:41:17;6.20;;;4.40;;
62903;SDS011;49000;50.698;13.322;2023-02-15T15:49:58;6.57;;;4.87;;
62903;SDS011;49000;50.698;13.322;2023-02-15T15:52:24;5.53;;;4.60;;
62903;SDS011;49000;50.698;13.322;2023-02-15T15:54:55;6.90;;;5.47;;
62903;SDS011;49000;50.698;13.322;2023-02-15T15:57:26;5.00;;;4.50;;
62903;SDS011;49000;50.698;13.322;2023-02-15T15:59:55;6.47;;;4.97;;
62903;SDS011;49000;50.698;13.322;2023-02-15T16:02:24;7.63;;;5.13;;
62903;SDS011;49000;50.698;13.322;2023-02-15T16:04:50;5.77;;;4.40;;
62903;SDS011;49000;50.698;13.322;2023-02-15T16:09:41;6.37;;;5.27;;
62903;SDS011;49000;50.698;13.322;2023-02-15T16:12:18;7.23;;;5.37;;
62903;SDS011;49000;50.698;13.322;2023-02-15T16:14:44;6.47;;;4.87;;
62903;SDS011;49000;50.698;13.322;2023-02-15T16:17:18;6.20;;;4.53;;
62903;SDS011;49000;50.698;13.322;2023-02-15T16:19:47;6.13;;;4.63;;
62903;SDS011;49000;50.698;13.322;2023-02-15T16:22:18;6.27;;;4.90;;
62903;SDS011;49000;50.698;13.322;2023-02-15T16:24:54;5.00;;;4.33;;
62903;SDS011;49000;50.698;13.322;2023-02-15T16:27:40;5.80;;;4.60;;
62903;SDS011;49000;50.698;13.322;2023-02-15T16:30:19;6.33;;;5.07;;
62903;SDS011;49000;50.698;13.322;2023-02-15T16:32:47;6.23;;;4.77;;
62903;SDS011;49000;50.698;13.322;2023-02-15T16:35:14;7.90;;;4.87;;
62903;SDS011;49000;50.698;13.322;2023-02-15T16:37:41;6.00;;;4.83;;
62903;SDS011;49000;50.698;13.322;2023-02-15T16:40:24;6.13;;;5.00;;
62903;SDS011;49000;50.698;13.322;2023-02-15T16:42:51;7.30;;;5.23;;
62903;SDS011;49000;50.698;13.322;2023-02-15T16:45:19;5.57;;;4.13;;
62903;SDS011;49000;50.698;13.322;2023-02-15T16:47:48;6.90;;;5.10;;
62903;SDS011;49000;50.698;13.322;2023-02-15T16:50:19;6.37;;;4.67;;
62903;SDS011;49000;50.698;13.322;2023-02-15T16:52:48;5.77;;;4.80;;
62903;SDS011;49000;50.698;13.322;2023-02-15T16:55:21;7.83;;;5.43;;
62903;SDS011;49000;50.698;13.322;2023-02-15T16:57:57;7.67;;;5.23;;
62903;SDS011;49000;50.698;13.322;2023-02-15T17:00:28;7.23;;;5.20;;
62903;SDS011;49000;50.698;13.322;2023-02-15T17:03:02;8.40;;;5.90;;
62903;SDS011;49000;50.698;13.322;2023-02-15T17:05:40;10.70;;;6.00;;
62903;SDS011;49000;50.698;13.322;2023-02-15T17:11:14;10.20;;;6.60;;
62903;SDS011;49000;50.698;13.322;2023-02-15T17:16:45;10.33;;;6.87;;
62903;SDS011;49000;50.698;13.322;2023-02-15T17:19:19;9.23;;;6.53;;
62903;SDS011;49000;50.698;13.322;2023-02-15T17:21:57;11.27;;;7.43;;